sensor_id;sensor_type;location;lat;lon;timestamp;temperature;humidity
1650;DHT22;822;53.670;8.676;2023-03-23T00:01:49;10.40;98.90
1650;DHT22;822;53.670;8.676;2023-03-23T00:04:16;10.40;98.90
1650;DHT22;822;53.670;8.676;2023-03-23T00:06:43;10.40;99.00
1650;DHT22;822;53.670;8.676;2023-03-23T00:09:11;10.40;99.00
1650;DHT22;822;53.670;8.676;2023-03-23T00:11:41;10.40;99.00
1650;DHT22;822;53.670;8.676;2023-03-23T00:14:09;10.40;99.00
1650;DHT22;822;53.670;8.676;2023-03-23T00:16:39;10.40;99.00
1650;DHT22;822;53.670;8.676;2023-03-23T00:19:11;10.40;99.10
1650;DHT22;822;53.670;8.676;2023-03-23T00:21:40;10.40;99.10
1650;DHT22;822;53.670;8.676;2023-03-23T00:24:09;10.40;99.10
1650;DHT22;822;53.670;8.676;2023-03-23T00:26:38;10.40;99.10
1650;DHT22;822;53.670;8.676;2023-03-23T00:29:07;10.40;99.20
1650;DHT22;822;53.670;8.676;2023-03-23T00:31:39;10.30;99.10
1650;DHT22;822;53.670;8.676;2023-03-23T00:34:06;10.40;99.20
1650;DHT22;822;53.670;8.676;2023-03-23T00:36:35;10.40;99.20
1650;DHT22;822;53.670;8.676;2023-03-23T00:39:08;10.40;99.20
1650;DHT22;822;53.670;8.676;2023-03-23T00:41:35;10.40;99.30
1650;DHT22;822;53.670;8.676;2023-03-23T00:44:04;10.40;99.20
1650;DHT22;822;53.670;8.676;2023-03-23T00:46:34;10.40;99.10
1650;DHT22;822;53.670;8.676;2023-03-23T00:49:11;10.30;99.00
1650;DHT22;822;53.670;8.676;2023-03-23T00:51:41;10.20;98.90
1650;DHT22;822;53.670;8.676;2023-03-23T00:54:09;10.00;98.90
1650;DHT22;822;53.670;8.676;2023-03-23T00:56:37;9.90;98.70
1650;DHT22;822;53.670;8.676;2023-03-23T00:59:05;9.90;98.70
1650;DHT22;822;53.670;8.676;2023-03-23T01:01:32;9.70;98.70
1650;DHT22;822;53.670;8.676;2023-03-23T01:04:01;9.70;98.80
1650;DHT22;822;53.670;8.676;2023-03-23T01:06:30;9.70;98.90
1650;DHT22;822;53.670;8.676;2023-03-23T01:08:59;9.70;98.80
1650;DHT22;822;53.670;8.676;2023-03-23T01:11:26;9.60;98.80
1650;DHT22;822;53.670;8.676;2023-03-23T01:13:53;9.50;98.70
1650;DHT22;822;53.670;8.676;2023-03-23T01:16:21;9.50;98.60
1650;DHT22;822;53.670;8.676;2023-03-23T01:18:48;9.40;98.60
1650;DHT22;822;53.670;8.676;2023-03-23T01:21:18;9.40;98.70
1650;DHT22;822;53.670;8.676;2023-03-23T01:23:46;9.40;98.70
1650;DHT22;822;53.670;8.676;2023-03-23T01:26:16;9.40;98.70
1650;DHT22;822;53.670;8.676;2023-03-23T01:28:44;9.40;98.80
1650;DHT22;822;53.670;8.676;2023-03-23T01:31:13;9.40;98.80
1650;DHT22;822;53.670;8.676;2023-03-23T01:33:41;9.30;98.80
1650;DHT22;822;53.670;8.676;2023-03-23T01:36:11;9.30;98.70
1650;DHT22;822;53.670;8.676;2023-03-23T01:38:39;9.30;98.70
1650;DHT22;822;53.670;8.676;2023-03-23T01:41:06;9.30;98.70
1650;DHT22;822;53.670;8.676;2023-03-23T01:43:35;9.30;98.80
1650;DHT22;822;53.670;8.676;2023-03-23T01:46:02;9.30;98.80
1650;DHT22;822;53.670;8.676;2023-03-23T01:48:32;9.30;98.80
1650;DHT22;822;53.670;8.676;2023-03-23T01:51:02;9.30;98.80
1650;DHT22;822;53.670;8.676;2023-03-23T01:53:36;9.20;98.80
1650;DHT22;822;53.670;8.676;2023-03-23T01:56:06;9.20;98.80
1650;DHT22;822;53.670;8.676;2023-03-23T01:58:37;9.20;98.80
1650;DHT22;822;53.670;8.676;2023-03-23T02:01:07;9.30;99.20
1650;DHT22;822;53.670;8.676;2023-03-23T02:03:38;9.30;98.90
1650;DHT22;822;53.670;8.676;2023-03-23T02:06:06;9.30;99.00
1650;DHT22;822;53.670;8.676;2023-03-23T02:08:34;9.40;99.20
1650;DHT22;822;53.670;8.676;2023-03-23T02:11:08;9.60;99.40
1650;DHT22;822;53.670;8.676;2023-03-23T02:13:37;9.70;99.50
1650;DHT22;822;53.670;8.676;2023-03-23T02:16:09;9.90;99.60
1650;DHT22;822;53.670;8.676;2023-03-23T02:18:48;10.00;99.60
1650;DHT22;822;53.670;8.676;2023-03-23T02:24:53;10.10;99.60
1650;DHT22;822;53.670;8.676;2023-03-23T02:27:40;10.20;99.80
1650;DHT22;822;53.670;8.676;2023-03-23T02:30:31;10.30;99.70
1650;DHT22;822;53.670;8.676;2023-03-23T02:33:37;10.30;99.90
1650;DHT22;822;53.670;8.676;2023-03-23T02:36:12;10.30;99.70
1650;DHT22;822;53.670;8.676;2023-03-23T02:38:46;10.40;99.70
1650;DHT22;822;53.670;8.676;2023-03-23T02:41:19;10.40;99.70
1650;DHT22;822;53.670;8.676;2023-03-23T02:43:49;10.40;99.70
1650;DHT22;822;53.670;8.676;2023-03-23T02:46:17;10.40;99.70
1650;DHT22;822;53.670;8.676;2023-03-23T02:48:49;10.40;99.70
1650;DHT22;822;53.670;8.676;2023-03-23T02:51:18;10.40;99.70
1650;DHT22;822;53.670;8.676;2023-03-23T02:53:48;10.40;99.70
1650;DHT22;822;53.670;8.676;2023-03-23T02:56:19;10.40;99.70
1650;DHT22;822;53.670;8.676;2023-03-23T02:58:47;10.40;99.70
1650;DHT22;822;53.670;8.676;2023-03-23T03:01:55;10.40;99.70
1650;DHT22;822;53.670;8.676;2023-03-23T03:04:26;10.40;99.70
1650;DHT22;822;53.670;8.676;2023-03-23T03:07:14;10.40;99.70
1650;DHT22;822;53.670;8.676;2023-03-23T03:09:47;10.50;99.70
1650;DHT22;822;53.670;8.676;2023-03-23T03:12:22;10.40;99.70
1650;DHT22;822;53.670;8.676;2023-03-23T03:14:56;10.40;99.70
1650;DHT22;822;53.670;8.676;2023-03-23T03:17:26;10.40;99.70
1650;DHT22;822;53.670;8.676;2023-03-23T03:19:58;10.40;99.70
1650;DHT22;822;53.670;8.676;2023-03-23T03:22:36;10.50;99.70
1650;DHT22;822;53.670;8.676;2023-03-23T03:25:08;10.50;99.70
1650;DHT22;822;53.670;8.676;2023-03-23T03:27:38;10.40;99.70
1650;DHT22;822;53.670;8.676;2023-03-23T03:30:10;10.40;99.70
1650;DHT22;822;53.670;8.676;2023-03-23T03:32:42;10.50;99.70
1650;DHT22;822;53.670;8.676;2023-03-23T03:35:13;10.50;99.70
1650;DHT22;822;53.670;8.676;2023-03-23T03:37:41;10.50;99.70
1650;DHT22;822;53.670;8.676;2023-03-23T03:40:12;10.50;99.70
1650;DHT22;822;53.670;8.676;2023-03-23T03:42:40;10.40;99.70
1650;DHT22;822;53.670;8.676;2023-03-23T03:45:09;10.50;99.70
1650;DHT22;822;53.670;8.676;2023-03-23T03:47:40;10.40;99.70
1650;DHT22;822;53.670;8.676;2023-03-23T03:50:08;10.50;99.90
1650;DHT22;822;53.670;8.676;2023-03-23T03:52:37;10.50;99.70
1650;DHT22;822;53.670;8.676;2023-03-23T03:55:07;10.40;99.60
1650;DHT22;822;53.670;8.676;2023-03-23T03:57:35;10.40;99.60
1650;DHT22;822;53.670;8.676;2023-03-23T04:00:02;10.40;99.70
1650;DHT22;822;53.670;8.676;2023-03-23T04:02:44;10.40;99.60
1650;DHT22;822;53.670;8.676;2023-03-23T04:05:13;10.40;99.60
1650;DHT22;822;53.670;8.676;2023-03-23T04:07:42;10.40;99.60
1650;DHT22;822;53.670;8.676;2023-03-23T04:10:10;10.40;99.60
1650;DHT22;822;53.670;8.676;2023-03-23T04:12:39;10.40;99.60
1650;DHT22;822;53.670;8.676;2023-03-23T04:15:07;10.40;99.60
1650;DHT22;822;53.670;8.676;2023-03-23T04:17:34;10.40;99.60
1650;DHT22;822;53.670;8.676;2023-03-23T04:20:01;10.40;99.60
1650;DHT22;822;53.670;8.676;2023-03-23T04:22:34;10.40;99.60
1650;DHT22;822;53.670;8.676;2023-03-23T04:25:02;10.40;99.60
1650;DHT22;822;53.670;8.676;2023-03-23T04:27:32;10.40;99.60
1650;DHT22;822;53.670;8.676;2023-03-23T04:30:00;10.40;99.50
1650;DHT22;822;53.670;8.676;2023-03-23T04:32:28;10.40;99.50
1650;DHT22;822;53.670;8.676;2023-03-23T04:34:56;10.40;99.50
1650;DHT22;822;53.670;8.676;2023-03-23T04:37:25;10.30;99.40
1650;DHT22;822;53.670;8.676;2023-03-23T04:39:56;10.30;99.40
1650;DHT22;822;53.670;8.676;2023-03-23T04:42:30;10.30;99.40
1650;DHT22;822;53.670;8.676;2023-03-23T04:44:57;10.30;99.40
1650;DHT22;822;53.670;8.676;2023-03-23T04:47:26;10.30;99.40
1650;DHT22;822;53.670;8.676;2023-03-23T04:49:55;10.30;99.40
1650;DHT22;822;53.670;8.676;2023-03-23T04:52:23;10.20;99.30
1650;DHT22;822;53.670;8.676;2023-03-23T04:54:50;10.20;99.30
1650;DHT22;822;53.670;8.676;2023-03-23T04:57:18;10.20;99.30
1650;DHT22;822;53.670;8.676;2023-03-23T04:59:47;10.20;99.30
1650;DHT22;822;53.670;8.676;2023-03-23T05:02:14;10.20;99.30
1650;DHT22;822;53.670;8.676;2023-03-23T05:04:43;10.10;99.20
1650;DHT22;822;53.670;8.676;2023-03-23T05:07:11;10.20;99.20
1650;DHT22;822;53.670;8.676;2023-03-23T05:09:38;10.10;99.20
1650;DHT22;822;53.670;8.676;2023-03-23T05:12:06;10.10;99.20
1650;DHT22;822;53.670;8.676;2023-03-23T05:14:34;10.10;99.30
1650;DHT22;822;53.670;8.676;2023-03-23T05:17:03;10.20;99.30
1650;DHT22;822;53.670;8.676;2023-03-23T05:19:30;10.20;99.30
1650;DHT22;822;53.670;8.676;2023-03-23T05:21:59;10.20;99.20
1650;DHT22;822;53.670;8.676;2023-03-23T05:24:29;10.20;99.50
1650;DHT22;822;53.670;8.676;2023-03-23T05:26:58;10.20;99.20
1650;DHT22;822;53.670;8.676;2023-03-23T05:29:25;10.20;99.20
1650;DHT22;822;53.670;8.676;2023-03-23T05:31:55;10.20;99.20
1650;DHT22;822;53.670;8.676;2023-03-23T05:34:26;10.30;99.20
1650;DHT22;822;53.670;8.676;2023-03-23T05:36:54;10.20;99.10
1650;DHT22;822;53.670;8.676;2023-03-23T05:39:23;10.30;99.10
1650;DHT22;822;53.670;8.676;2023-03-23T05:41:50;10.30;99.10
1650;DHT22;822;53.670;8.676;2023-03-23T05:44:18;10.30;99.10
1650;DHT22;822;53.670;8.676;2023-03-23T05:46:45;10.30;99.10
1650;DHT22;822;53.670;8.676;2023-03-23T05:49:14;10.30;99.10
1650;DHT22;822;53.670;8.676;2023-03-23T05:51:44;10.30;99.00
1650;DHT22;822;53.670;8.676;2023-03-23T05:54:12;10.40;99.00
1650;DHT22;822;53.670;8.676;2023-03-23T05:56:40;10.40;98.90
1650;DHT22;822;53.670;8.676;2023-03-23T05:59:08;10.40;98.90
1650;DHT22;822;53.670;8.676;2023-03-23T06:01:37;10.40;98.90
1650;DHT22;822;53.670;8.676;2023-03-23T06:04:04;10.40;98.80
1650;DHT22;822;53.670;8.676;2023-03-23T06:06:31;10.40;98.80
1650;DHT22;822;53.670;8.676;2023-03-23T06:09:00;10.40;98.80
1650;DHT22;822;53.670;8.676;2023-03-23T06:11:28;10.40;98.80
1650;DHT22;822;53.670;8.676;2023-03-23T06:13:59;10.40;98.80
1650;DHT22;822;53.670;8.676;2023-03-23T06:16:32;10.40;98.80
1650;DHT22;822;53.670;8.676;2023-03-23T06:18:59;10.50;98.90
1650;DHT22;822;53.670;8.676;2023-03-23T06:21:37;10.40;97.90
1650;DHT22;822;53.670;8.676;2023-03-23T06:24:16;10.20;97.30
1650;DHT22;822;53.670;8.676;2023-03-23T06:26:43;10.00;97.40
1650;DHT22;822;53.670;8.676;2023-03-23T06:29:11;9.90;97.40
1650;DHT22;822;53.670;8.676;2023-03-23T06:31:39;9.80;97.40
1650;DHT22;822;53.670;8.676;2023-03-23T06:34:07;9.70;97.40
1650;DHT22;822;53.670;8.676;2023-03-23T06:36:34;9.60;97.20
1650;DHT22;822;53.670;8.676;2023-03-23T06:39:01;9.50;97.30
1650;DHT22;822;53.670;8.676;2023-03-23T06:41:31;9.40;97.10
1650;DHT22;822;53.670;8.676;2023-03-23T06:43:59;9.40;97.30
1650;DHT22;822;53.670;8.676;2023-03-23T06:46:26;9.40;97.50
1650;DHT22;822;53.670;8.676;2023-03-23T06:48:53;9.30;97.60
1650;DHT22;822;53.670;8.676;2023-03-23T06:51:21;9.30;97.70
1650;DHT22;822;53.670;8.676;2023-03-23T06:53:48;9.40;97.60
1650;DHT22;822;53.670;8.676;2023-03-23T06:56:15;9.40;97.70
1650;DHT22;822;53.670;8.676;2023-03-23T06:58:47;9.40;97.80
1650;DHT22;822;53.670;8.676;2023-03-23T07:01:15;9.40;97.90
1650;DHT22;822;53.670;8.676;2023-03-23T07:03:42;9.50;98.00
1650;DHT22;822;53.670;8.676;2023-03-23T07:06:09;9.50;98.00
1650;DHT22;822;53.670;8.676;2023-03-23T07:08:37;9.50;98.10
1650;DHT22;822;53.670;8.676;2023-03-23T07:11:05;9.60;98.30
1650;DHT22;822;53.670;8.676;2023-03-23T07:13:32;9.70;98.50
1650;DHT22;822;53.670;8.676;2023-03-23T07:16:03;9.90;98.40
1650;DHT22;822;53.670;8.676;2023-03-23T07:18:32;9.90;98.40
1650;DHT22;822;53.670;8.676;2023-03-23T07:20:59;10.00;98.30
1650;DHT22;822;53.670;8.676;2023-03-23T07:23:28;10.10;97.80
1650;DHT22;822;53.670;8.676;2023-03-23T07:25:55;10.20;97.80
1650;DHT22;822;53.670;8.676;2023-03-23T07:28:23;10.30;97.80
1650;DHT22;822;53.670;8.676;2023-03-23T07:30:51;10.40;97.10
1650;DHT22;822;53.670;8.676;2023-03-23T07:33:19;10.40;97.10
1650;DHT22;822;53.670;8.676;2023-03-23T07:35:47;10.40;97.10
1650;DHT22;822;53.670;8.676;2023-03-23T07:38:14;10.40;97.10
1650;DHT22;822;53.670;8.676;2023-03-23T07:40:41;10.50;96.70
1650;DHT22;822;53.670;8.676;2023-03-23T07:43:09;10.50;96.80
1650;DHT22;822;53.670;8.676;2023-03-23T07:45:37;10.60;96.80
1650;DHT22;822;53.670;8.676;2023-03-23T07:48:04;10.50;96.80
1650;DHT22;822;53.670;8.676;2023-03-23T07:50:33;10.60;96.70
1650;DHT22;822;53.670;8.676;2023-03-23T07:53:02;10.60;96.60
1650;DHT22;822;53.670;8.676;2023-03-23T07:55:30;10.70;96.20
1650;DHT22;822;53.670;8.676;2023-03-23T07:57:57;10.70;96.10
1650;DHT22;822;53.670;8.676;2023-03-23T08:00:25;10.70;96.20
1650;DHT22;822;53.670;8.676;2023-03-23T08:02:53;10.80;95.90
1650;DHT22;822;53.670;8.676;2023-03-23T08:05:22;10.80;95.70
1650;DHT22;822;53.670;8.676;2023-03-23T08:07:54;10.90;95.70
1650;DHT22;822;53.670;8.676;2023-03-23T08:10:22;10.90;95.90
1650;DHT22;822;53.670;8.676;2023-03-23T08:12:52;11.00;95.90
1650;DHT22;822;53.670;8.676;2023-03-23T08:15:19;11.00;95.70
1650;DHT22;822;53.670;8.676;2023-03-23T08:17:47;11.00;95.70
1650;DHT22;822;53.670;8.676;2023-03-23T08:20:15;11.00;95.60
1650;DHT22;822;53.670;8.676;2023-03-23T08:22:51;11.10;95.70
1650;DHT22;822;53.670;8.676;2023-03-23T08:25:21;11.10;95.60
1650;DHT22;822;53.670;8.676;2023-03-23T08:27:50;11.10;95.30
1650;DHT22;822;53.670;8.676;2023-03-23T08:30:19;11.10;95.20
1650;DHT22;822;53.670;8.676;2023-03-23T08:32:47;11.20;95.20
1650;DHT22;822;53.670;8.676;2023-03-23T08:35:16;11.20;95.10
1650;DHT22;822;53.670;8.676;2023-03-23T08:37:43;11.20;95.20
1650;DHT22;822;53.670;8.676;2023-03-23T08:40:13;11.20;95.10
1650;DHT22;822;53.670;8.676;2023-03-23T08:42:42;11.30;95.20
1650;DHT22;822;53.670;8.676;2023-03-23T08:45:11;11.40;95.40
1650;DHT22;822;53.670;8.676;2023-03-23T08:47:41;11.50;95.40
1650;DHT22;822;53.670;8.676;2023-03-23T08:50:11;11.60;95.40
1650;DHT22;822;53.670;8.676;2023-03-23T08:52:39;11.60;94.90
1650;DHT22;822;53.670;8.676;2023-03-23T08:55:07;11.60;94.80
1650;DHT22;822;53.670;8.676;2023-03-23T08:57:35;11.70;94.90
1650;DHT22;822;53.670;8.676;2023-03-23T09:00:06;11.70;94.80
1650;DHT22;822;53.670;8.676;2023-03-23T09:02:40;11.70;94.00
1650;DHT22;822;53.670;8.676;2023-03-23T09:05:08;11.70;93.90
1650;DHT22;822;53.670;8.676;2023-03-23T09:07:37;11.70;93.40
1650;DHT22;822;53.670;8.676;2023-03-23T09:10:05;11.80;93.20
1650;DHT22;822;53.670;8.676;2023-03-23T09:12:33;11.80;93.40
1650;DHT22;822;53.670;8.676;2023-03-23T09:15:00;11.90;93.10
1650;DHT22;822;53.670;8.676;2023-03-23T09:17:32;11.90;93.00
1650;DHT22;822;53.670;8.676;2023-03-23T09:19:59;11.90;92.40
1650;DHT22;822;53.670;8.676;2023-03-23T09:22:39;12.00;92.10
1650;DHT22;822;53.670;8.676;2023-03-23T09:25:15;12.00;92.00
1650;DHT22;822;53.670;8.676;2023-03-23T09:27:45;12.00;91.80
1650;DHT22;822;53.670;8.676;2023-03-23T09:30:15;12.00;91.10
1650;DHT22;822;53.670;8.676;2023-03-23T09:32:46;12.10;90.80
1650;DHT22;822;53.670;8.676;2023-03-23T09:35:15;12.10;90.60
1650;DHT22;822;53.670;8.676;2023-03-23T09:37:43;12.10;90.00
1650;DHT22;822;53.670;8.676;2023-03-23T09:40:13;12.10;89.80
1650;DHT22;822;53.670;8.676;2023-03-23T09:45:57;12.10;89.90
1650;DHT22;822;53.670;8.676;2023-03-23T09:48:36;12.20;90.40
1650;DHT22;822;53.670;8.676;2023-03-23T09:51:12;12.30;89.60
1650;DHT22;822;53.670;8.676;2023-03-23T09:53:43;12.30;88.90
1650;DHT22;822;53.670;8.676;2023-03-23T09:56:13;12.30;88.50
1650;DHT22;822;53.670;8.676;2023-03-23T09:58:50;12.30;88.40
1650;DHT22;822;53.670;8.676;2023-03-23T10:01:22;12.30;88.80
1650;DHT22;822;53.670;8.676;2023-03-23T10:03:57;12.30;87.90
1650;DHT22;822;53.670;8.676;2023-03-23T10:06:27;12.30;88.30
1650;DHT22;822;53.670;8.676;2023-03-23T10:08:57;12.30;88.90
1650;DHT22;822;53.670;8.676;2023-03-23T10:11:32;12.40;89.80
1650;DHT22;822;53.670;8.676;2023-03-23T10:14:13;12.50;90.00
1650;DHT22;822;53.670;8.676;2023-03-23T10:16:45;12.50;89.70
1650;DHT22;822;53.670;8.676;2023-03-23T10:19:26;12.60;90.10
1650;DHT22;822;53.670;8.676;2023-03-23T10:22:00;12.60;90.10
1650;DHT22;822;53.670;8.676;2023-03-23T10:24:34;12.70;88.70
1650;DHT22;822;53.670;8.676;2023-03-23T10:27:08;12.70;88.60
1650;DHT22;822;53.670;8.676;2023-03-23T10:29:42;12.70;89.10
1650;DHT22;822;53.670;8.676;2023-03-23T10:32:13;12.70;90.00
1650;DHT22;822;53.670;8.676;2023-03-23T10:34:45;12.90;89.60
1650;DHT22;822;53.670;8.676;2023-03-23T10:37:19;13.10;90.40
1650;DHT22;822;53.670;8.676;2023-03-23T10:39:50;13.40;87.20
1650;DHT22;822;53.670;8.676;2023-03-23T10:42:23;13.50;85.50
1650;DHT22;822;53.670;8.676;2023-03-23T10:44:50;13.50;86.00
1650;DHT22;822;53.670;8.676;2023-03-23T10:47:18;13.60;83.80
1650;DHT22;822;53.670;8.676;2023-03-23T10:49:49;13.60;83.70
1650;DHT22;822;53.670;8.676;2023-03-23T10:52:30;13.60;84.10
1650;DHT22;822;53.670;8.676;2023-03-23T10:55:03;13.60;84.70
1650;DHT22;822;53.670;8.676;2023-03-23T10:57:33;13.50;83.30
1650;DHT22;822;53.670;8.676;2023-03-23T11:00:03;13.50;83.80
1650;DHT22;822;53.670;8.676;2023-03-23T11:02:37;13.60;81.80
1650;DHT22;822;53.670;8.676;2023-03-23T11:05:18;13.70;81.40
1650;DHT22;822;53.670;8.676;2023-03-23T11:07:51;13.70;81.20
1650;DHT22;822;53.670;8.676;2023-03-23T11:10:23;13.70;80.30
1650;DHT22;822;53.670;8.676;2023-03-23T11:12:51;13.70;78.70
1650;DHT22;822;53.670;8.676;2023-03-23T11:15:29;13.60;80.00
1650;DHT22;822;53.670;8.676;2023-03-23T11:17:58;13.60;79.00
1650;DHT22;822;53.670;8.676;2023-03-23T11:20:28;13.70;79.30
1650;DHT22;822;53.670;8.676;2023-03-23T11:22:55;13.90;81.10
1650;DHT22;822;53.670;8.676;2023-03-23T11:25:23;13.90;80.80
1650;DHT22;822;53.670;8.676;2023-03-23T11:27:55;14.10;80.60
1650;DHT22;822;53.670;8.676;2023-03-23T11:30:25;14.20;79.10
1650;DHT22;822;53.670;8.676;2023-03-23T11:32:54;14.20;78.30
1650;DHT22;822;53.670;8.676;2023-03-23T11:35:25;14.20;76.50
1650;DHT22;822;53.670;8.676;2023-03-23T11:37:55;14.10;77.70
1650;DHT22;822;53.670;8.676;2023-03-23T11:40:25;14.10;78.80
1650;DHT22;822;53.670;8.676;2023-03-23T11:42:59;14.00;75.40
1650;DHT22;822;53.670;8.676;2023-03-23T11:45:32;13.90;76.00
1650;DHT22;822;53.670;8.676;2023-03-23T11:48:19;13.80;76.90
1650;DHT22;822;53.670;8.676;2023-03-23T11:50:50;13.80;77.40
1650;DHT22;822;53.670;8.676;2023-03-23T11:53:34;13.90;79.90
1650;DHT22;822;53.670;8.676;2023-03-23T11:56:11;14.10;79.60
1650;DHT22;822;53.670;8.676;2023-03-23T11:58:40;14.30;78.70
1650;DHT22;822;53.670;8.676;2023-03-23T12:01:36;14.50;75.90
1650;DHT22;822;53.670;8.676;2023-03-23T12:10:02;15.00;74.30
1650;DHT22;822;53.670;8.676;2023-03-23T12:12:40;15.20;73.20
1650;DHT22;822;53.670;8.676;2023-03-23T12:15:17;15.40;72.90
1650;DHT22;822;53.670;8.676;2023-03-23T12:17:53;15.60;73.30
1650;DHT22;822;53.670;8.676;2023-03-23T12:20:32;15.70;71.10
1650;DHT22;822;53.670;8.676;2023-03-23T12:23:14;15.90;70.30
1650;DHT22;822;53.670;8.676;2023-03-23T12:25:52;16.00;69.80
1650;DHT22;822;53.670;8.676;2023-03-23T12:28:32;16.10;72.10
1650;DHT22;822;53.670;8.676;2023-03-23T12:31:09;16.30;70.10
1650;DHT22;822;53.670;8.676;2023-03-23T12:33:45;16.30;66.30
1650;DHT22;822;53.670;8.676;2023-03-23T12:36:23;16.30;67.60
1650;DHT22;822;53.670;8.676;2023-03-23T12:39:31;16.40;68.20
1650;DHT22;822;53.670;8.676;2023-03-23T12:42:06;16.60;69.90
1650;DHT22;822;53.670;8.676;2023-03-23T12:44:46;16.70;70.10
1650;DHT22;822;53.670;8.676;2023-03-23T12:47:34;16.80;68.90
1650;DHT22;822;53.670;8.676;2023-03-23T12:50:07;16.90;69.10
1650;DHT22;822;53.670;8.676;2023-03-23T12:52:45;16.90;68.10
1650;DHT22;822;53.670;8.676;2023-03-23T12:55:19;17.00;65.20
1650;DHT22;822;53.670;8.676;2023-03-23T12:57:54;17.00;65.60
1650;DHT22;822;53.670;8.676;2023-03-23T13:00:28;16.90;64.30
1650;DHT22;822;53.670;8.676;2023-03-23T13:03:03;16.90;64.00
1650;DHT22;822;53.670;8.676;2023-03-23T13:05:38;16.80;63.20
1650;DHT22;822;53.670;8.676;2023-03-23T13:08:14;16.70;62.70
1650;DHT22;822;53.670;8.676;2023-03-23T13:10:45;16.70;64.30
1650;DHT22;822;53.670;8.676;2023-03-23T13:13:19;16.70;63.80
1650;DHT22;822;53.670;8.676;2023-03-23T13:15:55;16.70;63.40
1650;DHT22;822;53.670;8.676;2023-03-23T13:18:33;16.60;63.30
1650;DHT22;822;53.670;8.676;2023-03-23T13:21:11;16.50;64.00
1650;DHT22;822;53.670;8.676;2023-03-23T13:23:42;16.50;65.20
1650;DHT22;822;53.670;8.676;2023-03-23T13:26:12;16.50;63.60
1650;DHT22;822;53.670;8.676;2023-03-23T13:28:55;16.50;63.00
1650;DHT22;822;53.670;8.676;2023-03-23T13:31:26;16.30;62.80
1650;DHT22;822;53.670;8.676;2023-03-23T13:34:04;16.20;63.20
1650;DHT22;822;53.670;8.676;2023-03-23T13:36:37;16.10;63.70
1650;DHT22;822;53.670;8.676;2023-03-23T13:39:16;15.90;62.70
1650;DHT22;822;53.670;8.676;2023-03-23T13:41:48;15.90;65.50
1650;DHT22;822;53.670;8.676;2023-03-23T13:44:19;16.00;65.60
1650;DHT22;822;53.670;8.676;2023-03-23T13:47:04;16.10;64.90
1650;DHT22;822;53.670;8.676;2023-03-23T13:49:32;16.20;65.10
1650;DHT22;822;53.670;8.676;2023-03-23T13:52:06;16.30;65.40
1650;DHT22;822;53.670;8.676;2023-03-23T13:54:44;16.30;63.10
1650;DHT22;822;53.670;8.676;2023-03-23T13:57:25;16.40;63.50
1650;DHT22;822;53.670;8.676;2023-03-23T13:59:59;16.50;64.00
1650;DHT22;822;53.670;8.676;2023-03-23T14:02:38;16.50;65.00
1650;DHT22;822;53.670;8.676;2023-03-23T14:05:32;16.60;63.50
1650;DHT22;822;53.670;8.676;2023-03-23T14:08:01;16.60;62.10
1650;DHT22;822;53.670;8.676;2023-03-23T14:10:34;16.60;62.40
1650;DHT22;822;53.670;8.676;2023-03-23T14:13:03;16.70;63.40
1650;DHT22;822;53.670;8.676;2023-03-23T14:15:42;16.70;62.40
1650;DHT22;822;53.670;8.676;2023-03-23T14:18:14;16.70;62.30
1650;DHT22;822;53.670;8.676;2023-03-23T14:20:46;16.70;62.30
1650;DHT22;822;53.670;8.676;2023-03-23T14:23:18;16.70;63.10
1650;DHT22;822;53.670;8.676;2023-03-23T14:25:55;16.70;60.20
1650;DHT22;822;53.670;8.676;2023-03-23T14:28:26;16.60;60.50
1650;DHT22;822;53.670;8.676;2023-03-23T14:30:55;16.60;60.90
1650;DHT22;822;53.670;8.676;2023-03-23T14:33:25;16.50;60.80
1650;DHT22;822;53.670;8.676;2023-03-23T14:35:53;16.50;61.60
1650;DHT22;822;53.670;8.676;2023-03-23T14:38:25;16.50;62.30
1650;DHT22;822;53.670;8.676;2023-03-23T14:41:04;16.40;62.90
1650;DHT22;822;53.670;8.676;2023-03-23T14:43:33;16.40;62.70
1650;DHT22;822;53.670;8.676;2023-03-23T14:46:05;16.30;62.40
1650;DHT22;822;53.670;8.676;2023-03-23T14:48:34;16.30;61.80
1650;DHT22;822;53.670;8.676;2023-03-23T14:51:04;16.30;59.60
1650;DHT22;822;53.670;8.676;2023-03-23T14:53:35;16.20;59.70
1650;DHT22;822;53.670;8.676;2023-03-23T14:56:08;16.00;59.70
1650;DHT22;822;53.670;8.676;2023-03-23T14:58:36;16.00;58.90
1650;DHT22;822;53.670;8.676;2023-03-23T15:01:07;15.90;59.00
1650;DHT22;822;53.670;8.676;2023-03-23T15:03:39;15.90;58.60
1650;DHT22;822;53.670;8.676;2023-03-23T15:06:14;15.90;58.20
1650;DHT22;822;53.670;8.676;2023-03-23T15:08:43;15.80;58.30
1650;DHT22;822;53.670;8.676;2023-03-23T15:11:20;15.70;58.30
1650;DHT22;822;53.670;8.676;2023-03-23T15:13:49;15.70;57.80
1650;DHT22;822;53.670;8.676;2023-03-23T15:16:21;15.50;58.00
1650;DHT22;822;53.670;8.676;2023-03-23T15:18:51;15.30;57.00
1650;DHT22;822;53.670;8.676;2023-03-23T15:21:27;15.20;59.80
1650;DHT22;822;53.670;8.676;2023-03-23T15:23:55;15.30;61.40
1650;DHT22;822;53.670;8.676;2023-03-23T15:26:28;15.30;61.00
1650;DHT22;822;53.670;8.676;2023-03-23T15:29:10;15.30;61.20
1650;DHT22;822;53.670;8.676;2023-03-23T15:31:44;15.30;60.60
1650;DHT22;822;53.670;8.676;2023-03-23T15:34:24;15.20;60.50
1650;DHT22;822;53.670;8.676;2023-03-23T15:36:58;15.20;59.80
1650;DHT22;822;53.670;8.676;2023-03-23T15:39:29;15.20;61.80
1650;DHT22;822;53.670;8.676;2023-03-23T15:41:57;15.10;61.10
1650;DHT22;822;53.670;8.676;2023-03-23T15:44:30;15.00;61.70
1650;DHT22;822;53.670;8.676;2023-03-23T15:47:16;15.00;63.00
1650;DHT22;822;53.670;8.676;2023-03-23T15:49:44;15.00;63.60
1650;DHT22;822;53.670;8.676;2023-03-23T15:52:13;15.00;63.90
1650;DHT22;822;53.670;8.676;2023-03-23T15:54:46;14.90;63.30
1650;DHT22;822;53.670;8.676;2023-03-23T15:57:14;14.90;63.40
1650;DHT22;822;53.670;8.676;2023-03-23T15:59:41;14.80;62.60
1650;DHT22;822;53.670;8.676;2023-03-23T16:02:18;14.80;64.70
1650;DHT22;822;53.670;8.676;2023-03-23T16:04:46;14.80;64.80
1650;DHT22;822;53.670;8.676;2023-03-23T16:07:13;14.70;65.10
1650;DHT22;822;53.670;8.676;2023-03-23T16:09:40;14.60;64.90
1650;DHT22;822;53.670;8.676;2023-03-23T16:12:10;14.50;65.80
1650;DHT22;822;53.670;8.676;2023-03-23T16:14:38;14.50;65.20
1650;DHT22;822;53.670;8.676;2023-03-23T16:17:08;14.50;66.80
1650;DHT22;822;53.670;8.676;2023-03-23T16:19:37;14.40;67.20
1650;DHT22;822;53.670;8.676;2023-03-23T16:22:04;14.40;67.10
1650;DHT22;822;53.670;8.676;2023-03-23T16:24:31;14.30;67.50
1650;DHT22;822;53.670;8.676;2023-03-23T16:26:58;14.30;67.80
1650;DHT22;822;53.670;8.676;2023-03-23T16:29:25;14.30;68.10
1650;DHT22;822;53.670;8.676;2023-03-23T16:31:52;14.20;68.30
1650;DHT22;822;53.670;8.676;2023-03-23T16:34:19;14.20;68.70
1650;DHT22;822;53.670;8.676;2023-03-23T16:36:48;14.20;68.70
1650;DHT22;822;53.670;8.676;2023-03-23T16:39:15;14.20;69.10
1650;DHT22;822;53.670;8.676;2023-03-23T16:41:43;14.10;68.50
1650;DHT22;822;53.670;8.676;2023-03-23T16:44:11;14.00;69.20
1650;DHT22;822;53.670;8.676;2023-03-23T16:46:38;13.90;69.60
1650;DHT22;822;53.670;8.676;2023-03-23T16:49:05;13.90;69.10
1650;DHT22;822;53.670;8.676;2023-03-23T16:51:32;13.80;69.70
1650;DHT22;822;53.670;8.676;2023-03-23T16:54:04;13.70;70.50
1650;DHT22;822;53.670;8.676;2023-03-23T16:56:31;13.70;70.30
1650;DHT22;822;53.670;8.676;2023-03-23T16:58:58;13.60;70.90